Terminal Aerodrome Forecast
Issued by NWS Sterling, VA

Current Version | Previous Version | Text Only | Print | Product List | Glossary Off
Versions: 1 2 3 4 5 6 7 8 9 10 11 12 13 14 15 16 17 18 19 20 21

997
FTUS41 KLWX 260833 AAA
TAFIAD
TAF AMD
KIAD 260833Z 2609/2712 VRB03KT P6SM FEW250
     FM261400 31007KT P6SM FEW250
     FM270500 VRB03KT P6SM FEW060 FEW250
     FM270600 VRB03KT 5SM BR FEW060 FEW250
     FM270900 35004KT 6SM BR FEW250=

USA.gov is the U.S. government's official web portal to all federal, state and local government web resources and services.